sensor_id;sensor_type;location;lat;lon;timestamp;P1;durP1;ratioP1;P2;durP2;ratioP2
35839;SDS011;35514;50.504;30.500;2023-02-10T00:02:12;37.40;;;9.07;;
35839;SDS011;35514;50.504;30.500;2023-02-10T00:04:39;25.60;;;9.70;;
35839;SDS011;35514;50.504;30.500;2023-02-10T00:07:07;31.40;;;10.00;;
35839;SDS011;35514;50.504;30.500;2023-02-10T00:09:34;28.08;;;10.88;;
35839;SDS011;35514;50.504;30.500;2023-02-10T00:12:02;29.25;;;11.55;;
35839;SDS011;35514;50.504;30.500;2023-02-10T00:14:30;37.22;;;10.25;;
35839;SDS011;35514;50.504;30.500;2023-02-10T00:16:57;29.73;;;10.57;;
35839;SDS011;35514;50.504;30.500;2023-02-10T00:19:27;29.90;;;11.18;;
35839;SDS011;35514;50.504;30.500;2023-02-10T00:21:57;21.00;;;9.35;;
35839;SDS011;35514;50.504;30.500;2023-02-10T00:24:24;32.45;;;9.30;;
35839;SDS011;35514;50.504;30.500;2023-02-10T00:26:52;29.70;;;10.65;;
35839;SDS011;35514;50.504;30.500;2023-02-10T00:29:20;26.35;;;9.40;;
35839;SDS011;35514;50.504;30.500;2023-02-10T00:31:47;30.75;;;11.48;;
35839;SDS011;35514;50.504;30.500;2023-02-10T00:34:15;29.38;;;9.60;;
35839;SDS011;35514;50.504;30.500;2023-02-10T00:36:45;20.35;;;9.38;;
35839;SDS011;35514;50.504;30.500;2023-02-10T00:39:13;30.52;;;8.95;;
35839;SDS011;35514;50.504;30.500;2023-02-10T00:41:41;24.17;;;9.80;;
35839;SDS011;35514;50.504;30.500;2023-02-10T00:44:08;34.60;;;9.45;;
35839;SDS011;35514;50.504;30.500;2023-02-10T00:46:36;26.17;;;10.18;;
35839;SDS011;35514;50.504;30.500;2023-02-10T00:49:04;34.22;;;10.00;;
35839;SDS011;35514;50.504;30.500;2023-02-10T00:51:32;35.40;;;8.93;;
35839;SDS011;35514;50.504;30.500;2023-02-10T00:54:01;31.42;;;9.80;;
35839;SDS011;35514;50.504;30.500;2023-02-10T00:56:28;31.50;;;11.45;;
35839;SDS011;35514;50.504;30.500;2023-02-10T00:58:56;35.85;;;11.15;;
35839;SDS011;35514;50.504;30.500;2023-02-10T01:01:24;34.75;;;10.70;;
35839;SDS011;35514;50.504;30.500;2023-02-10T01:03:51;32.40;;;10.63;;
35839;SDS011;35514;50.504;30.500;2023-02-10T01:06:19;23.40;;;9.57;;
35839;SDS011;35514;50.504;30.500;2023-02-10T01:08:47;31.52;;;10.82;;
35839;SDS011;35514;50.504;30.500;2023-02-10T01:11:16;31.45;;;9.85;;
35839;SDS011;35514;50.504;30.500;2023-02-10T01:13:44;25.67;;;10.73;;
35839;SDS011;35514;50.504;30.500;2023-02-10T01:16:13;30.48;;;10.20;;
35839;SDS011;35514;50.504;30.500;2023-02-10T01:18:43;21.52;;;8.75;;
35839;SDS011;35514;50.504;30.500;2023-02-10T01:21:11;24.55;;;8.82;;
35839;SDS011;35514;50.504;30.500;2023-02-10T01:23:39;22.55;;;8.98;;
35839;SDS011;35514;50.504;30.500;2023-02-10T01:26:07;27.83;;;10.02;;
35839;SDS011;35514;50.504;30.500;2023-02-10T01:28:37;24.40;;;9.63;;
35839;SDS011;35514;50.504;30.500;2023-02-10T01:31:05;25.30;;;8.55;;
35839;SDS011;35514;50.504;30.500;2023-02-10T01:33:34;28.63;;;10.07;;
35839;SDS011;35514;50.504;30.500;2023-02-10T01:36:02;22.27;;;8.68;;
35839;SDS011;35514;50.504;30.500;2023-02-10T01:38:30;22.55;;;9.48;;
35839;SDS011;35514;50.504;30.500;2023-02-10T01:41:00;29.90;;;9.95;;
35839;SDS011;35514;50.504;30.500;2023-02-10T01:43:27;27.75;;;9.43;;
35839;SDS011;35514;50.504;30.500;2023-02-10T01:45:56;31.17;;;9.40;;
35839;SDS011;35514;50.504;30.500;2023-02-10T01:48:24;25.13;;;9.63;;
35839;SDS011;35514;50.504;30.500;2023-02-10T01:50:53;28.42;;;10.45;;
35839;SDS011;35514;50.504;30.500;2023-02-10T01:53:22;29.08;;;9.30;;
35839;SDS011;35514;50.504;30.500;2023-02-10T01:55:51;24.05;;;9.43;;
35839;SDS011;35514;50.504;30.500;2023-02-10T01:58:20;32.75;;;9.15;;
35839;SDS011;35514;50.504;30.500;2023-02-10T02:00:48;30.35;;;8.75;;
35839;SDS011;35514;50.504;30.500;2023-02-10T02:03:17;32.13;;;9.25;;
35839;SDS011;35514;50.504;30.500;2023-02-10T02:05:45;24.50;;;8.60;;
35839;SDS011;35514;50.504;30.500;2023-02-10T02:08:14;32.83;;;9.30;;
35839;SDS011;35514;50.504;30.500;2023-02-10T02:10:52;34.25;;;11.27;;
35839;SDS011;35514;50.504;30.500;2023-02-10T02:13:24;30.27;;;10.68;;
35839;SDS011;35514;50.504;30.500;2023-02-10T02:15:55;28.83;;;11.30;;
35839;SDS011;35514;50.504;30.500;2023-02-10T02:18:27;33.33;;;11.43;;
35839;SDS011;35514;50.504;30.500;2023-02-10T02:21:06;29.33;;;9.10;;
35839;SDS011;35514;50.504;30.500;2023-02-10T02:24:00;35.35;;;10.38;;
35839;SDS011;35514;50.504;30.500;2023-02-10T02:26:32;44.08;;;11.38;;
35839;SDS011;35514;50.504;30.500;2023-02-10T02:29:09;40.55;;;11.10;;
35839;SDS011;35514;50.504;30.500;2023-02-10T02:31:45;25.13;;;9.55;;
35839;SDS011;35514;50.504;30.500;2023-02-10T02:34:16;30.40;;;10.63;;
35839;SDS011;35514;50.504;30.500;2023-02-10T02:36:46;43.35;;;11.35;;
35839;SDS011;35514;50.504;30.500;2023-02-10T02:39:15;34.72;;;11.02;;
35839;SDS011;35514;50.504;30.500;2023-02-10T02:41:43;38.40;;;10.13;;
35839;SDS011;35514;50.504;30.500;2023-02-10T02:44:11;37.83;;;10.85;;
35839;SDS011;35514;50.504;30.500;2023-02-10T02:46:42;37.13;;;10.48;;
35839;SDS011;35514;50.504;30.500;2023-02-10T02:49:17;29.25;;;9.02;;
35839;SDS011;35514;50.504;30.500;2023-02-10T02:51:49;36.28;;;11.70;;
35839;SDS011;35514;50.504;30.500;2023-02-10T02:54:23;24.10;;;9.45;;
35839;SDS011;35514;50.504;30.500;2023-02-10T02:56:54;43.38;;;11.65;;
35839;SDS011;35514;50.504;30.500;2023-02-10T02:59:25;30.42;;;11.00;;
35839;SDS011;35514;50.504;30.500;2023-02-10T03:01:56;28.05;;;9.20;;
35839;SDS011;35514;50.504;30.500;2023-02-10T03:04:27;25.27;;;10.68;;
35839;SDS011;35514;50.504;30.500;2023-02-10T03:06:56;25.33;;;10.65;;
35839;SDS011;35514;50.504;30.500;2023-02-10T03:09:24;30.13;;;9.13;;
35839;SDS011;35514;50.504;30.500;2023-02-10T03:11:52;32.67;;;9.32;;
35839;SDS011;35514;50.504;30.500;2023-02-10T03:14:20;28.50;;;8.30;;
35839;SDS011;35514;50.504;30.500;2023-02-10T03:16:48;21.40;;;8.38;;
35839;SDS011;35514;50.504;30.500;2023-02-10T03:19:16;24.50;;;8.48;;
35839;SDS011;35514;50.504;30.500;2023-02-10T03:21:45;28.17;;;8.48;;
35839;SDS011;35514;50.504;30.500;2023-02-10T03:24:13;24.10;;;7.75;;
35839;SDS011;35514;50.504;30.500;2023-02-10T03:26:43;32.97;;;9.15;;
35839;SDS011;35514;50.504;30.500;2023-02-10T03:29:10;20.95;;;7.38;;
35839;SDS011;35514;50.504;30.500;2023-02-10T03:31:39;27.63;;;9.77;;
35839;SDS011;35514;50.504;30.500;2023-02-10T03:34:07;20.75;;;8.68;;
35839;SDS011;35514;50.504;30.500;2023-02-10T03:36:34;24.73;;;8.85;;
35839;SDS011;35514;50.504;30.500;2023-02-10T03:39:04;24.95;;;9.23;;
35839;SDS011;35514;50.504;30.500;2023-02-10T03:41:31;27.73;;;9.27;;
35839;SDS011;35514;50.504;30.500;2023-02-10T03:43:59;30.10;;;9.48;;
35839;SDS011;35514;50.504;30.500;2023-02-10T03:46:27;39.75;;;10.35;;
35839;SDS011;35514;50.504;30.500;2023-02-10T03:48:54;28.98;;;10.35;;
35839;SDS011;35514;50.504;30.500;2023-02-10T03:51:22;24.83;;;8.20;;
35839;SDS011;35514;50.504;30.500;2023-02-10T03:53:50;25.58;;;10.15;;
35839;SDS011;35514;50.504;30.500;2023-02-10T03:56:19;29.45;;;9.95;;
35839;SDS011;35514;50.504;30.500;2023-02-10T03:58:46;26.05;;;8.30;;
35839;SDS011;35514;50.504;30.500;2023-02-10T04:01:14;20.35;;;8.70;;
35839;SDS011;35514;50.504;30.500;2023-02-10T04:03:42;22.45;;;7.60;;
35839;SDS011;35514;50.504;30.500;2023-02-10T04:06:10;25.20;;;10.43;;
35839;SDS011;35514;50.504;30.500;2023-02-10T04:08:38;24.25;;;10.05;;
35839;SDS011;35514;50.504;30.500;2023-02-10T04:11:06;30.75;;;9.38;;
35839;SDS011;35514;50.504;30.500;2023-02-10T04:13:37;29.92;;;9.38;;
35839;SDS011;35514;50.504;30.500;2023-02-10T06:49:25;28.92;;;11.50;;
35839;SDS011;35514;50.504;30.500;2023-02-10T06:51:53;29.17;;;10.32;;
35839;SDS011;35514;50.504;30.500;2023-02-10T06:54:21;27.17;;;9.02;;
35839;SDS011;35514;50.504;30.500;2023-02-10T06:56:50;28.27;;;9.07;;
35839;SDS011;35514;50.504;30.500;2023-02-10T06:59:18;30.67;;;10.00;;
35839;SDS011;35514;50.504;30.500;2023-02-10T07:01:46;33.05;;;10.30;;
35839;SDS011;35514;50.504;30.500;2023-02-10T07:04:14;31.90;;;9.95;;
35839;SDS011;35514;50.504;30.500;2023-02-10T07:06:43;28.27;;;10.30;;
35839;SDS011;35514;50.504;30.500;2023-02-10T07:09:11;25.58;;;10.50;;
35839;SDS011;35514;50.504;30.500;2023-02-10T07:11:39;32.30;;;12.18;;
35839;SDS011;35514;50.504;30.500;2023-02-10T07:14:06;35.92;;;10.40;;
35839;SDS011;35514;50.504;30.500;2023-02-10T07:16:34;26.80;;;10.40;;
35839;SDS011;35514;50.504;30.500;2023-02-10T07:19:01;37.80;;;10.45;;
35839;SDS011;35514;50.504;30.500;2023-02-10T07:21:30;29.20;;;10.93;;
35839;SDS011;35514;50.504;30.500;2023-02-10T07:23:58;44.80;;;12.55;;
35839;SDS011;35514;50.504;30.500;2023-02-10T07:26:27;36.20;;;12.00;;
35839;SDS011;35514;50.504;30.500;2023-02-10T07:28:55;34.67;;;11.20;;
35839;SDS011;35514;50.504;30.500;2023-02-10T07:31:23;33.45;;;11.93;;
35839;SDS011;35514;50.504;30.500;2023-02-10T07:33:50;33.80;;;11.77;;
35839;SDS011;35514;50.504;30.500;2023-02-10T07:36:18;36.38;;;11.30;;
35839;SDS011;35514;50.504;30.500;2023-02-10T07:38:46;33.47;;;12.25;;
35839;SDS011;35514;50.504;30.500;2023-02-10T07:41:15;30.73;;;11.43;;
35839;SDS011;35514;50.504;30.500;2023-02-10T07:43:42;31.17;;;12.35;;
35839;SDS011;35514;50.504;30.500;2023-02-10T07:46:10;44.92;;;14.73;;
35839;SDS011;35514;50.504;30.500;2023-02-10T07:48:37;37.25;;;13.48;;
35839;SDS011;35514;50.504;30.500;2023-02-10T07:51:05;43.25;;;13.23;;
35839;SDS011;35514;50.504;30.500;2023-02-10T07:53:32;30.38;;;10.52;;
35839;SDS011;35514;50.504;30.500;2023-02-10T07:56:00;28.98;;;11.63;;
35839;SDS011;35514;50.504;30.500;2023-02-10T07:58:29;40.35;;;12.25;;
35839;SDS011;35514;50.504;30.500;2023-02-10T08:00:57;33.97;;;12.32;;
35839;SDS011;35514;50.504;30.500;2023-02-10T08:03:25;32.58;;;11.15;;
35839;SDS011;35514;50.504;30.500;2023-02-10T08:05:53;31.77;;;12.10;;
35839;SDS011;35514;50.504;30.500;2023-02-10T08:08:20;35.13;;;11.90;;
35839;SDS011;35514;50.504;30.500;2023-02-10T08:10:48;25.73;;;11.15;;
35839;SDS011;35514;50.504;30.500;2023-02-10T08:13:16;32.67;;;11.60;;
35839;SDS011;35514;50.504;30.500;2023-02-10T08:15:45;30.52;;;11.60;;
35839;SDS011;35514;50.504;30.500;2023-02-10T08:18:13;34.55;;;11.77;;
35839;SDS011;35514;50.504;30.500;2023-02-10T08:20:41;27.05;;;10.77;;
35839;SDS011;35514;50.504;30.500;2023-02-10T08:23:09;35.38;;;11.88;;
35839;SDS011;35514;50.504;30.500;2023-02-10T08:25:40;32.55;;;12.35;;
35839;SDS011;35514;50.504;30.500;2023-02-10T08:28:07;37.88;;;14.30;;
35839;SDS011;35514;50.504;30.500;2023-02-10T08:30:35;30.83;;;12.07;;
35839;SDS011;35514;50.504;30.500;2023-02-10T08:33:05;35.30;;;12.88;;
35839;SDS011;35514;50.504;30.500;2023-02-10T08:35:34;35.25;;;12.82;;
35839;SDS011;35514;50.504;30.500;2023-02-10T08:38:01;33.35;;;13.32;;
35839;SDS011;35514;50.504;30.500;2023-02-10T08:40:29;36.50;;;12.98;;
35839;SDS011;35514;50.504;30.500;2023-02-10T08:42:57;33.45;;;12.25;;
35839;SDS011;35514;50.504;30.500;2023-02-10T08:45:24;35.63;;;12.32;;
35839;SDS011;35514;50.504;30.500;2023-02-10T08:47:52;30.15;;;12.52;;
35839;SDS011;35514;50.504;30.500;2023-02-10T08:50:21;34.53;;;12.65;;
35839;SDS011;35514;50.504;30.500;2023-02-10T08:52:51;30.58;;;13.52;;
35839;SDS011;35514;50.504;30.500;2023-02-10T08:55:40;33.63;;;12.10;;
35839;SDS011;35514;50.504;30.500;2023-02-10T08:58:17;26.40;;;11.05;;
35839;SDS011;35514;50.504;30.500;2023-02-10T09:00:53;41.50;;;11.93;;
35839;SDS011;35514;50.504;30.500;2023-02-10T09:03:20;33.42;;;13.30;;
35839;SDS011;35514;50.504;30.500;2023-02-10T09:05:50;29.23;;;11.90;;
35839;SDS011;35514;50.504;30.500;2023-02-10T09:08:17;27.45;;;10.75;;
35839;SDS011;35514;50.504;30.500;2023-02-10T09:10:45;32.45;;;11.57;;
35839;SDS011;35514;50.504;30.500;2023-02-10T09:13:13;23.67;;;10.95;;
35839;SDS011;35514;50.504;30.500;2023-02-10T09:15:41;30.67;;;11.85;;
35839;SDS011;35514;50.504;30.500;2023-02-10T09:18:09;27.55;;;12.10;;
35839;SDS011;35514;50.504;30.500;2023-02-10T09:20:38;25.05;;;10.80;;
35839;SDS011;35514;50.504;30.500;2023-02-10T09:23:07;35.08;;;12.25;;
35839;SDS011;35514;50.504;30.500;2023-02-10T09:25:35;23.20;;;10.18;;
35839;SDS011;35514;50.504;30.500;2023-02-10T09:28:02;30.15;;;11.25;;
35839;SDS011;35514;50.504;30.500;2023-02-10T09:30:30;35.30;;;11.60;;
35839;SDS011;35514;50.504;30.500;2023-02-10T09:32:57;23.65;;;11.02;;
35839;SDS011;35514;50.504;30.500;2023-02-10T09:35:25;25.38;;;12.05;;
35839;SDS011;35514;50.504;30.500;2023-02-10T09:37:53;29.42;;;12.13;;
35839;SDS011;35514;50.504;30.500;2023-02-10T09:40:23;27.92;;;11.02;;
35839;SDS011;35514;50.504;30.500;2023-02-10T09:43:04;24.15;;;9.95;;
35839;SDS011;35514;50.504;30.500;2023-02-10T09:45:34;25.58;;;10.75;;
35839;SDS011;35514;50.504;30.500;2023-02-10T09:48:08;24.42;;;11.10;;
35839;SDS011;35514;50.504;30.500;2023-02-10T09:50:43;28.77;;;11.38;;
35839;SDS011;35514;50.504;30.500;2023-02-10T09:53:16;29.27;;;12.38;;
35839;SDS011;35514;50.504;30.500;2023-02-10T09:55:46;23.35;;;10.90;;
35839;SDS011;35514;50.504;30.500;2023-02-10T09:58:19;29.50;;;12.40;;
35839;SDS011;35514;50.504;30.500;2023-02-10T10:00:52;32.70;;;12.68;;
35839;SDS011;35514;50.504;30.500;2023-02-10T10:03:23;30.80;;;12.75;;
35839;SDS011;35514;50.504;30.500;2023-02-10T10:05:55;27.30;;;11.88;;
35839;SDS011;35514;50.504;30.500;2023-02-10T10:08:27;34.80;;;11.98;;
35839;SDS011;35514;50.504;30.500;2023-02-10T10:11:01;32.10;;;11.53;;
35839;SDS011;35514;50.504;30.500;2023-02-10T10:13:31;24.77;;;10.98;;
35839;SDS011;35514;50.504;30.500;2023-02-10T10:16:06;31.92;;;12.30;;
35839;SDS011;35514;50.504;30.500;2023-02-10T10:18:36;29.90;;;13.38;;
35839;SDS011;35514;50.504;30.500;2023-02-10T10:21:05;28.75;;;12.10;;
35839;SDS011;35514;50.504;30.500;2023-02-10T10:23:41;25.33;;;11.75;;
35839;SDS011;35514;50.504;30.500;2023-02-10T10:26:18;24.02;;;10.73;;
35839;SDS011;35514;50.504;30.500;2023-02-10T10:29:02;24.02;;;10.38;;
35839;SDS011;35514;50.504;30.500;2023-02-10T10:31:32;30.75;;;11.30;;
35839;SDS011;35514;50.504;30.500;2023-02-10T10:34:01;26.55;;;10.55;;
35839;SDS011;35514;50.504;30.500;2023-02-10T10:36:30;32.40;;;11.85;;
35839;SDS011;35514;50.504;30.500;2023-02-10T10:39:00;32.70;;;11.93;;
35839;SDS011;35514;50.504;30.500;2023-02-10T10:41:30;27.90;;;11.32;;
35839;SDS011;35514;50.504;30.500;2023-02-10T10:43:58;22.88;;;10.20;;
35839;SDS011;35514;50.504;30.500;2023-02-10T10:46:27;27.25;;;11.10;;
35839;SDS011;35514;50.504;30.500;2023-02-10T10:48:55;24.20;;;10.02;;
35839;SDS011;35514;50.504;30.500;2023-02-10T10:51:23;20.77;;;9.93;;
35839;SDS011;35514;50.504;30.500;2023-02-10T10:53:52;23.00;;;10.70;;
35839;SDS011;35514;50.504;30.500;2023-02-10T10:56:23;23.42;;;10.32;;
35839;SDS011;35514;50.504;30.500;2023-02-10T10:58:57;22.30;;;9.80;;
35839;SDS011;35514;50.504;30.500;2023-02-10T11:01:32;21.48;;;9.52;;
35839;SDS011;35514;50.504;30.500;2023-02-10T11:04:04;21.67;;;9.75;;
35839;SDS011;35514;50.504;30.500;2023-02-10T11:06:33;21.45;;;9.40;;
35839;SDS011;35514;50.504;30.500;2023-02-10T11:09:04;24.35;;;10.43;;
35839;SDS011;35514;50.504;30.500;2023-02-10T11:11:34;22.55;;;10.10;;
35839;SDS011;35514;50.504;30.500;2023-02-10T11:14:12;19.77;;;8.50;;
35839;SDS011;35514;50.504;30.500;2023-02-10T11:16:41;18.00;;;8.23;;
35839;SDS011;35514;50.504;30.500;2023-02-10T11:19:16;19.30;;;8.65;;
35839;SDS011;35514;50.504;30.500;2023-02-10T11:21:44;18.65;;;7.78;;
35839;SDS011;35514;50.504;30.500;2023-02-10T11:24:19;18.65;;;8.82;;
35839;SDS011;35514;50.504;30.500;2023-02-10T11:26:54;19.88;;;8.57;;
35839;SDS011;35514;50.504;30.500;2023-02-10T11:29:23;17.77;;;9.27;;
35839;SDS011;35514;50.504;30.500;2023-02-10T11:31:52;18.30;;;8.93;;
35839;SDS011;35514;50.504;30.500;2023-02-10T11:34:21;19.80;;;8.13;;
35839;SDS011;35514;50.504;30.500;2023-02-10T11:36:49;21.20;;;8.98;;
35839;SDS011;35514;50.504;30.500;2023-02-10T11:39:20;21.85;;;8.45;;
35839;SDS011;35514;50.504;30.500;2023-02-10T11:41:49;23.15;;;10.45;;
35839;SDS011;35514;50.504;30.500;2023-02-10T11:44:23;28.52;;;10.95;;
35839;SDS011;35514;50.504;30.500;2023-02-10T11:46:56;21.73;;;9.05;;
35839;SDS011;35514;50.504;30.500;2023-02-10T11:49:24;21.38;;;9.45;;
35839;SDS011;35514;50.504;30.500;2023-02-10T11:51:58;25.25;;;9.82;;
35839;SDS011;35514;50.504;30.500;2023-02-10T11:54:27;26.00;;;10.32;;
35839;SDS011;35514;50.504;30.500;2023-02-10T11:56:58;21.33;;;9.07;;
35839;SDS011;35514;50.504;30.500;2023-02-10T11:59:47;23.10;;;9.35;;
35839;SDS011;35514;50.504;30.500;2023-02-10T12:02:20;29.70;;;9.52;;
35839;SDS011;35514;50.504;30.500;2023-02-10T12:05:03;24.85;;;9.20;;
35839;SDS011;35514;50.504;30.500;2023-02-10T12:07:37;27.73;;;10.48;;
35839;SDS011;35514;50.504;30.500;2023-02-10T12:10:11;23.63;;;9.35;;
35839;SDS011;35514;50.504;30.500;2023-02-10T12:12:42;23.85;;;9.10;;
35839;SDS011;35514;50.504;30.500;2023-02-10T12:15:15;22.95;;;9.15;;
35839;SDS011;35514;50.504;30.500;2023-02-10T12:17:48;21.92;;;10.13;;
35839;SDS011;35514;50.504;30.500;2023-02-10T12:20:22;24.23;;;9.02;;
35839;SDS011;35514;50.504;30.500;2023-02-10T12:23:00;29.13;;;9.60;;
35839;SDS011;35514;50.504;30.500;2023-02-10T12:25:32;22.27;;;9.50;;
35839;SDS011;35514;50.504;30.500;2023-02-10T12:28:04;26.73;;;9.30;;
35839;SDS011;35514;50.504;30.500;2023-02-10T12:30:37;30.17;;;9.82;;
35839;SDS011;35514;50.504;30.500;2023-02-10T12:33:16;22.63;;;9.63;;
35839;SDS011;35514;50.504;30.500;2023-02-10T12:35:52;25.98;;;8.45;;
35839;SDS011;35514;50.504;30.500;2023-02-10T12:38:26;21.85;;;7.82;;
35839;SDS011;35514;50.504;30.500;2023-02-10T12:40:58;31.15;;;8.55;;
35839;SDS011;35514;50.504;30.500;2023-02-10T12:43:31;23.65;;;8.63;;
35839;SDS011;35514;50.504;30.500;2023-02-10T12:46:03;23.42;;;9.23;;
35839;SDS011;35514;50.504;30.500;2023-02-10T12:48:39;30.55;;;11.20;;
35839;SDS011;35514;50.504;30.500;2023-02-10T12:51:27;25.38;;;10.15;;
35839;SDS011;35514;50.504;30.500;2023-02-10T12:53:57;28.52;;;11.32;;
35839;SDS011;35514;50.504;30.500;2023-02-10T12:56:28;24.45;;;9.88;;
35839;SDS011;35514;50.504;30.500;2023-02-10T12:58:59;23.45;;;9.27;;
35839;SDS011;35514;50.504;30.500;2023-02-10T13:01:29;30.95;;;10.30;;
35839;SDS011;35514;50.504;30.500;2023-02-10T13:04:01;24.02;;;9.52;;
35839;SDS011;35514;50.504;30.500;2023-02-10T13:06:31;26.58;;;9.75;;
35839;SDS011;35514;50.504;30.500;2023-02-10T13:09:02;23.55;;;9.85;;
35839;SDS011;35514;50.504;30.500;2023-02-10T13:11:34;20.02;;;9.05;;
35839;SDS011;35514;50.504;30.500;2023-02-10T13:14:03;22.90;;;9.63;;
35839;SDS011;35514;50.504;30.500;2023-02-10T13:16:32;24.65;;;9.88;;
35839;SDS011;35514;50.504;30.500;2023-02-10T13:19:03;21.45;;;8.55;;
35839;SDS011;35514;50.504;30.500;2023-02-10T13:21:34;21.05;;;9.45;;
35839;SDS011;35514;50.504;30.500;2023-02-10T13:24:13;23.55;;;10.00;;
35839;SDS011;35514;50.504;30.500;2023-02-10T13:26:51;26.92;;;10.13;;
35839;SDS011;35514;50.504;30.500;2023-02-10T13:29:24;24.92;;;10.63;;
35839;SDS011;35514;50.504;30.500;2023-02-10T13:32:03;21.88;;;9.20;;
35839;SDS011;35514;50.504;30.500;2023-02-10T13:37:04;22.02;;;8.73;;
35839;SDS011;35514;50.504;30.500;2023-02-10T16:58:07;43.00;;;14.85;;
35839;SDS011;35514;50.504;30.500;2023-02-10T17:00:40;44.25;;;15.57;;
35839;SDS011;35514;50.504;30.500;2023-02-10T17:03:08;49.80;;;13.60;;
35839;SDS011;35514;50.504;30.500;2023-02-10T17:05:37;37.72;;;12.52;;
35839;SDS011;35514;50.504;30.500;2023-02-10T17:08:04;42.03;;;14.13;;
35839;SDS011;35514;50.504;30.500;2023-02-10T17:10:32;32.10;;;12.60;;
35839;SDS011;35514;50.504;30.500;2023-02-10T17:13:03;37.78;;;13.48;;
35839;SDS011;35514;50.504;30.500;2023-02-10T17:15:32;36.83;;;12.65;;
35839;SDS011;35514;50.504;30.500;2023-02-10T17:18:00;35.22;;;13.38;;
35839;SDS011;35514;50.504;30.500;2023-02-10T17:20:29;33.83;;;12.35;;
35839;SDS011;35514;50.504;30.500;2023-02-10T17:22:57;40.17;;;14.10;;
35839;SDS011;35514;50.504;30.500;2023-02-10T17:25:30;30.60;;;12.88;;
35839;SDS011;35514;50.504;30.500;2023-02-10T17:27:58;36.85;;;12.70;;
35839;SDS011;35514;50.504;30.500;2023-02-10T17:30:26;32.75;;;14.32;;
35839;SDS011;35514;50.504;30.500;2023-02-10T17:32:55;37.65;;;14.88;;
35839;SDS011;35514;50.504;30.500;2023-02-10T17:35:25;37.30;;;13.65;;
35839;SDS011;35514;50.504;30.500;2023-02-10T17:37:54;43.17;;;15.60;;
35839;SDS011;35514;50.504;30.500;2023-02-10T17:40:36;43.05;;;15.52;;
35839;SDS011;35514;50.504;30.500;2023-02-10T17:43:07;42.85;;;14.05;;
35839;SDS011;35514;50.504;30.500;2023-02-10T17:45:38;42.60;;;14.88;;
35839;SDS011;35514;50.504;30.500;2023-02-10T17:48:07;34.08;;;13.10;;
35839;SDS011;35514;50.504;30.500;2023-02-10T17:50:37;37.70;;;13.25;;
35839;SDS011;35514;50.504;30.500;2023-02-10T17:53:08;35.63;;;13.15;;
35839;SDS011;35514;50.504;30.500;2023-02-10T17:55:39;41.17;;;15.00;;
35839;SDS011;35514;50.504;30.500;2023-02-10T17:58:07;40.17;;;13.15;;
35839;SDS011;35514;50.504;30.500;2023-02-10T18:00:34;38.20;;;13.70;;
35839;SDS011;35514;50.504;30.500;2023-02-10T18:03:02;45.10;;;14.80;;
35839;SDS011;35514;50.504;30.500;2023-02-10T18:05:33;39.25;;;13.82;;
35839;SDS011;35514;50.504;30.500;2023-02-10T18:08:01;38.25;;;12.77;;
35839;SDS011;35514;50.504;30.500;2023-02-10T18:10:29;40.55;;;13.73;;
35839;SDS011;35514;50.504;30.500;2023-02-10T18:12:57;44.13;;;13.18;;
35839;SDS011;35514;50.504;30.500;2023-02-10T18:15:25;39.83;;;13.50;;
35839;SDS011;35514;50.504;30.500;2023-02-10T18:17:53;39.53;;;12.60;;
35839;SDS011;35514;50.504;30.500;2023-02-10T18:20:21;45.22;;;15.30;;
35839;SDS011;35514;50.504;30.500;2023-02-10T18:22:50;43.47;;;14.32;;
35839;SDS011;35514;50.504;30.500;2023-02-10T18:25:18;36.95;;;13.57;;
35839;SDS011;35514;50.504;30.500;2023-02-10T18:27:47;39.13;;;13.70;;
35839;SDS011;35514;50.504;30.500;2023-02-10T18:30:17;37.45;;;13.00;;
35839;SDS011;35514;50.504;30.500;2023-02-10T18:32:45;38.35;;;13.30;;
35839;SDS011;35514;50.504;30.500;2023-02-10T18:35:13;40.72;;;13.30;;
35839;SDS011;35514;50.504;30.500;2023-02-10T18:37:41;40.22;;;14.45;;
35839;SDS011;35514;50.504;30.500;2023-02-10T18:40:13;42.13;;;15.40;;
35839;SDS011;35514;50.504;30.500;2023-02-10T18:42:48;41.47;;;14.35;;
35839;SDS011;35514;50.504;30.500;2023-02-10T18:45:32;45.92;;;14.65;;
35839;SDS011;35514;50.504;30.500;2023-02-10T18:48:00;42.90;;;14.23;;
35839;SDS011;35514;50.504;30.500;2023-02-10T18:50:33;39.60;;;13.60;;
35839;SDS011;35514;50.504;30.500;2023-02-10T18:53:14;42.50;;;14.52;;
35839;SDS011;35514;50.504;30.500;2023-02-10T18:58:49;39.00;;;15.50;;
35839;SDS011;35514;50.504;30.500;2023-02-10T19:01:20;36.80;;;13.93;;
35839;SDS011;35514;50.504;30.500;2023-02-10T19:03:52;44.78;;;15.05;;
35839;SDS011;35514;50.504;30.500;2023-02-10T19:06:24;48.17;;;13.50;;
35839;SDS011;35514;50.504;30.500;2023-02-10T19:08:54;40.05;;;15.23;;
35839;SDS011;35514;50.504;30.500;2023-02-10T19:11:42;45.30;;;13.57;;
35839;SDS011;35514;50.504;30.500;2023-02-10T19:14:27;40.97;;;14.50;;
35839;SDS011;35514;50.504;30.500;2023-02-10T19:22:49;40.55;;;13.13;;
35839;SDS011;35514;50.504;30.500;2023-02-10T19:25:18;39.38;;;14.90;;
35839;SDS011;35514;50.504;30.500;2023-02-10T19:27:46;47.63;;;15.43;;
35839;SDS011;35514;50.504;30.500;2023-02-10T19:30:17;38.45;;;14.35;;
35839;SDS011;35514;50.504;30.500;2023-02-10T19:32:46;44.15;;;14.75;;
35839;SDS011;35514;50.504;30.500;2023-02-10T19:35:15;41.88;;;14.52;;
35839;SDS011;35514;50.504;30.500;2023-02-10T19:37:45;46.05;;;14.77;;
35839;SDS011;35514;50.504;30.500;2023-02-10T19:40:13;41.05;;;15.13;;
35839;SDS011;35514;50.504;30.500;2023-02-10T19:42:43;40.67;;;16.40;;
35839;SDS011;35514;50.504;30.500;2023-02-10T19:45:20;37.28;;;13.77;;
35839;SDS011;35514;50.504;30.500;2023-02-10T19:47:55;49.25;;;16.33;;
35839;SDS011;35514;50.504;30.500;2023-02-10T19:50:28;44.58;;;15.75;;
35839;SDS011;35514;50.504;30.500;2023-02-10T19:53:04;52.95;;;16.00;;
35839;SDS011;35514;50.504;30.500;2023-02-10T19:55:36;48.10;;;15.98;;
35839;SDS011;35514;50.504;30.500;2023-02-10T19:58:05;45.47;;;15.95;;
35839;SDS011;35514;50.504;30.500;2023-02-10T20:00:38;43.20;;;14.82;;
35839;SDS011;35514;50.504;30.500;2023-02-10T20:03:12;54.13;;;16.95;;
35839;SDS011;35514;50.504;30.500;2023-02-10T20:05:43;46.90;;;17.43;;
35839;SDS011;35514;50.504;30.500;2023-02-10T20:08:13;42.80;;;13.35;;
35839;SDS011;35514;50.504;30.500;2023-02-10T20:10:42;42.35;;;14.77;;
35839;SDS011;35514;50.504;30.500;2023-02-10T20:13:18;44.58;;;15.02;;
35839;SDS011;35514;50.504;30.500;2023-02-10T20:16:03;53.55;;;16.85;;
35839;SDS011;35514;50.504;30.500;2023-02-10T20:18:46;42.38;;;15.98;;
35839;SDS011;35514;50.504;30.500;2023-02-10T20:21:14;40.67;;;14.82;;
35839;SDS011;35514;50.504;30.500;2023-02-10T20:26:19;49.70;;;16.20;;
35839;SDS011;35514;50.504;30.500;2023-02-10T20:28:50;49.42;;;14.38;;
35839;SDS011;35514;50.504;30.500;2023-02-10T20:31:31;41.22;;;16.00;;
35839;SDS011;35514;50.504;30.500;2023-02-10T20:34:14;41.50;;;15.40;;
35839;SDS011;35514;50.504;30.500;2023-02-10T20:36:51;40.17;;;14.68;;
35839;SDS011;35514;50.504;30.500;2023-02-10T20:39:25;50.53;;;16.55;;